createdAt,value
2023-04-12T00:00:55.860Z,100599.31
2023-04-12T00:03:22.840Z,100572.97
2023-04-12T00:05:55.180Z,100590.19
2023-04-12T00:08:24.841Z,100571.91
2023-04-12T00:10:51.901Z,100534.63
2023-04-12T00:13:19.386Z,100506.59
2023-04-12T00:15:46.167Z,100588.56
2023-04-12T00:18:12.744Z,100571.53
2023-04-12T00:20:39.365Z,100580.66
2023-04-12T00:23:06.304Z,100555.91
2023-04-12T00:25:32.977Z,100584.16
2023-04-12T00:27:59.552Z,100581.69
2023-04-12T00:30:26.726Z,100578.56
2023-04-12T00:32:53.458Z,100555.81
2023-04-12T00:35:20.105Z,100559.47
2023-04-12T00:37:46.619Z,100515.81
2023-04-12T00:40:13.500Z,100520.84
2023-04-12T00:42:40.150Z,100569.06
2023-04-12T00:45:07.323Z,100554.38
2023-04-12T00:47:37.862Z,100569.91
2023-04-12T00:53:19.649Z,100572.16
2023-04-12T00:55:46.610Z,100527.75
2023-04-12T00:58:14.580Z,100506.56
2023-04-12T01:00:41.195Z,100470.75
2023-04-12T01:05:56.854Z,100498.00
2023-04-12T01:08:38.956Z,100535.16
2023-04-12T01:11:32.029Z,100529.06
2023-04-12T01:14:15.612Z,100502.38
2023-04-12T01:16:47.917Z,100539.66
2023-04-12T01:19:59.512Z,100522.97
2023-04-12T01:22:30.277Z,100518.41
2023-04-12T01:25:32.639Z,100515.94
2023-04-12T01:28:02.781Z,100442.09
2023-04-12T01:30:30.029Z,100484.81
2023-04-12T01:32:59.824Z,100501.28
2023-04-12T01:35:30.740Z,100504.63
2023-04-12T01:38:01.527Z,100462.97
2023-04-12T01:40:29.407Z,100510.50
2023-04-12T01:43:12.610Z,100508.63
2023-04-12T01:45:40.091Z,100508.13
2023-04-12T01:48:09.313Z,100510.59
2023-04-12T01:51:00.893Z,100515.94
2023-04-12T01:53:43.647Z,100507.66
2023-04-12T01:56:11.736Z,100506.50
2023-04-12T01:58:41.187Z,100503.72
2023-04-12T02:01:09.285Z,100429.25
2023-04-12T02:03:37.665Z,100501.66
2023-04-12T02:06:05.939Z,100502.16
2023-04-12T02:08:33.363Z,100432.44
2023-04-12T02:10:59.975Z,100459.63
2023-04-12T02:13:26.853Z,100485.13
2023-04-12T02:15:55.089Z,100483.28
2023-04-12T02:18:21.906Z,100490.78
2023-04-12T02:20:50.140Z,100491.56
2023-04-12T02:23:16.731Z,100398.38
2023-04-12T02:25:44.415Z,100444.53
2023-04-12T02:28:10.978Z,100488.03
2023-04-12T02:30:38.495Z,100487.09
2023-04-12T02:33:06.301Z,100475.53
2023-04-12T02:35:33.000Z,100478.72
2023-04-12T02:37:59.567Z,100464.53
2023-04-12T02:40:26.192Z,100476.50
2023-04-12T02:42:52.782Z,100456.59
2023-04-12T02:45:19.366Z,100421.72
2023-04-12T02:47:46.015Z,100456.47
2023-04-12T02:50:12.775Z,100444.00
2023-04-12T02:52:39.365Z,100412.72
2023-04-12T02:55:06.614Z,100431.78
2023-04-12T02:57:33.239Z,100363.34
2023-04-12T02:59:59.915Z,100378.75
2023-04-12T03:02:26.687Z,100358.03
2023-04-12T03:04:53.492Z,100384.34
2023-04-12T03:07:21.445Z,100397.25
2023-04-12T03:09:49.812Z,100369.19
2023-04-12T03:12:16.759Z,100372.66
2023-04-12T03:14:43.439Z,100377.91
2023-04-12T03:17:10.309Z,100377.91
2023-04-12T03:19:37.402Z,100375.97
2023-04-12T03:22:04.784Z,100384.31
2023-04-12T03:24:35.102Z,100369.75
2023-04-12T03:27:02.980Z,100335.38
2023-04-12T03:29:31.055Z,100285.91
2023-04-12T03:31:59.597Z,100363.13
2023-04-12T03:34:33.258Z,100340.88
2023-04-12T03:37:03.305Z,100330.41
2023-04-12T03:39:29.923Z,100345.66
2023-04-12T03:41:56.522Z,100328.03
2023-04-12T03:44:26.292Z,100324.44
2023-04-12T03:46:53.292Z,100336.47
2023-04-12T03:49:19.965Z,100304.63
2023-04-12T03:51:46.628Z,100348.81
2023-04-12T03:54:13.570Z,100350.84
2023-04-12T03:56:40.272Z,100273.56
2023-04-12T03:59:10.198Z,100333.84
2023-04-12T04:01:37.188Z,100343.97
2023-04-12T04:04:04.345Z,100296.38
2023-04-12T04:06:31.221Z,100325.91
2023-04-12T04:08:58.337Z,100298.81
2023-04-12T04:11:25.785Z,100315.19
2023-04-12T04:13:52.423Z,100323.38
2023-04-12T04:16:19.187Z,100310.94
2023-04-12T04:18:46.019Z,100307.41
2023-04-12T04:21:14.519Z,100306.06
2023-04-12T04:23:45.157Z,100235.31
2023-04-12T04:26:12.444Z,100307.38
2023-04-12T04:28:40.154Z,100304.53
2023-04-12T04:31:06.849Z,100285.00
2023-04-12T04:33:33.832Z,100272.22
2023-04-12T04:36:01.117Z,100300.16
2023-04-12T04:38:28.430Z,100254.09
2023-04-12T04:40:55.508Z,100260.94
2023-04-12T04:43:22.308Z,100291.53
2023-04-12T04:45:54.873Z,100280.56
2023-04-12T04:48:21.775Z,100253.59
2023-04-12T04:50:48.389Z,100304.97
2023-04-12T04:53:18.782Z,100282.63
2023-04-12T04:55:45.426Z,100246.38
2023-04-12T04:58:12.434Z,100262.19
2023-04-12T05:00:39.130Z,100231.25
2023-04-12T05:03:05.873Z,100292.91
2023-04-12T05:05:32.780Z,100290.75
2023-04-12T05:07:59.362Z,100291.25
2023-04-12T05:10:25.958Z,100238.09
2023-04-12T05:12:52.523Z,100301.72
2023-04-12T05:15:19.390Z,100294.66
2023-04-12T05:17:46.376Z,100272.19
2023-04-12T05:20:13.115Z,100115.97
2023-04-12T05:22:40.081Z,100317.44
2023-04-12T05:25:07.152Z,100279.69
2023-04-12T05:27:33.738Z,100301.88
2023-04-12T05:30:00.569Z,100311.03
2023-04-12T05:32:27.277Z,100315.31
2023-04-12T05:34:54.061Z,100309.66
2023-04-12T05:37:20.890Z,100209.94
2023-04-12T05:39:47.442Z,100297.44
2023-04-12T05:42:14.022Z,100303.28
2023-04-12T05:44:40.650Z,100300.84
2023-04-12T05:47:07.221Z,100294.16
2023-04-12T05:49:33.761Z,100277.34
2023-04-12T05:52:00.328Z,100227.41
2023-04-12T05:54:27.305Z,100246.44
2023-04-12T05:56:57.315Z,100290.53
2023-04-12T05:59:24.087Z,100292.47
2023-04-12T06:01:51.174Z,100286.41
2023-04-12T06:04:17.934Z,100286.63
2023-04-12T06:06:44.731Z,100200.66
2023-04-12T06:09:12.602Z,100215.63
2023-04-12T06:11:39.455Z,100227.06
2023-04-12T06:14:06.438Z,100241.44
2023-04-12T06:16:33.196Z,100265.16
2023-04-12T06:19:00.123Z,100281.00
2023-04-12T06:21:27.588Z,100273.94
2023-04-12T06:23:54.149Z,100263.94
2023-04-12T06:26:21.015Z,100222.75
2023-04-12T06:28:47.642Z,100212.25
2023-04-12T06:31:16.038Z,100227.59
2023-04-12T06:33:42.915Z,100199.59
2023-04-12T06:36:11.689Z,100265.38
2023-04-12T06:38:39.192Z,100268.97
2023-04-12T06:41:06.647Z,100276.50
2023-04-12T06:43:33.908Z,100256.31
2023-04-12T06:46:03.123Z,100266.41
2023-04-12T06:48:30.087Z,100271.75
2023-04-12T06:50:56.757Z,100273.75
2023-04-12T06:53:23.458Z,100254.81
2023-04-12T06:55:50.113Z,100212.56
2023-04-12T06:58:16.848Z,100263.97
2023-04-12T07:00:43.433Z,100240.91
2023-04-12T07:03:10.557Z,100261.91
2023-04-12T07:05:40.409Z,100206.69
2023-04-12T07:08:08.586Z,100246.50
2023-04-12T07:10:36.413Z,100256.38
2023-04-12T07:13:07.216Z,100242.97
2023-04-12T07:15:34.206Z,100230.94
2023-04-12T07:18:00.862Z,100187.22
2023-04-12T07:20:27.485Z,100232.91
2023-04-12T07:22:54.111Z,100229.63
2023-04-12T07:25:20.819Z,100240.84
2023-04-12T07:27:47.791Z,100237.00
2023-04-12T07:30:15.398Z,100238.59
2023-04-12T07:32:42.158Z,100230.03
2023-04-12T07:35:09.085Z,100230.66
2023-04-12T07:37:35.865Z,100158.09
2023-04-12T07:40:02.616Z,100218.88
2023-04-12T07:42:29.287Z,100222.81
2023-04-12T07:44:56.121Z,100215.34
2023-04-12T07:47:22.819Z,100177.06
2023-04-12T07:49:49.568Z,100203.84
2023-04-12T07:52:16.178Z,100216.28
2023-04-12T07:54:43.084Z,100218.44
2023-04-12T07:57:10.004Z,100213.75
2023-04-12T07:59:36.797Z,100146.63
2023-04-12T08:02:03.885Z,100188.38
2023-04-12T08:04:30.631Z,100198.56
2023-04-12T08:06:57.393Z,100145.03
2023-04-12T08:09:25.200Z,100142.06
2023-04-12T08:11:52.344Z,100176.34
2023-04-12T08:14:18.930Z,100130.22
2023-04-12T08:16:45.714Z,100146.81
2023-04-12T08:19:12.334Z,100151.25
2023-04-12T08:21:39.983Z,100147.09
2023-04-12T08:24:07.000Z,100145.25
2023-04-12T08:26:33.578Z,100088.13
2023-04-12T08:29:00.465Z,100159.78
2023-04-12T08:31:27.213Z,100154.75
2023-04-12T08:33:53.913Z,100153.22
2023-04-12T08:36:21.027Z,100143.91
2023-04-12T08:38:52.544Z,100121.97
2023-04-12T08:41:20.363Z,100092.78
2023-04-12T08:43:47.854Z,100135.22
2023-04-12T08:46:17.746Z,100126.72
2023-04-12T08:48:54.364Z,100110.06
2023-04-12T08:51:22.335Z,100108.41
2023-04-12T08:53:49.026Z,100110.44
2023-04-12T08:56:16.713Z,100085.97
2023-04-12T08:58:49.271Z,100053.13
2023-04-12T09:01:17.121Z,100050.59
2023-04-12T09:03:44.869Z,100077.19
2023-04-12T09:06:12.698Z,100074.31
2023-04-12T09:09:01.630Z,100073.75
2023-04-12T09:11:28.987Z,100064.56
2023-04-12T09:13:56.796Z,100056.97
2023-04-12T09:16:41.687Z,100051.94
2023-04-12T09:19:09.313Z,100055.84
2023-04-12T09:21:36.663Z,100040.66
2023-04-12T09:24:06.436Z,100042.31
2023-04-12T09:26:33.204Z,100032.59
2023-04-12T09:28:59.790Z,100027.63
2023-04-12T09:31:26.847Z,100012.31
2023-04-12T09:34:07.584Z,100011.72
2023-04-12T09:36:41.266Z,99991.16
2023-04-12T09:39:08.366Z,99952.13
2023-04-12T09:41:34.966Z,99958.16
2023-04-12T09:44:02.202Z,99989.31
2023-04-12T09:46:29.101Z,99983.56
2023-04-12T09:48:59.277Z,99974.78
2023-04-12T09:51:31.519Z,99981.03
2023-04-12T09:54:03.492Z,99970.03
2023-04-12T09:56:42.317Z,99948.19
2023-04-12T09:59:09.429Z,99930.66
2023-04-12T10:01:39.586Z,99959.78
2023-04-12T10:04:07.970Z,99954.81
2023-04-12T10:06:36.208Z,99925.50
2023-04-12T10:09:07.002Z,99872.69
2023-04-12T10:11:36.254Z,99950.56
2023-04-12T10:14:03.582Z,99946.53
2023-04-12T10:16:31.201Z,99919.28
2023-04-12T10:19:02.777Z,99927.72
2023-04-12T10:21:31.315Z,99915.66
2023-04-12T10:23:58.426Z,99913.41
2023-04-12T10:26:25.207Z,99912.63
2023-04-12T10:29:29.546Z,99925.38
2023-04-12T10:32:22.560Z,99861.91
2023-04-12T10:34:58.390Z,99907.56
2023-04-12T10:38:01.530Z,99885.44
2023-04-12T10:40:29.706Z,99917.53
2023-04-12T10:43:22.654Z,99909.00
2023-04-12T10:45:50.047Z,99899.28
2023-04-12T10:48:34.154Z,99913.56
2023-04-12T10:51:28.905Z,99915.81
2023-04-12T10:54:07.617Z,99916.09
2023-04-12T10:56:44.972Z,99911.50
2023-04-12T10:59:12.640Z,99911.59
2023-04-12T11:01:41.063Z,99918.47
2023-04-12T11:04:22.019Z,99913.00
2023-04-12T11:07:21.634Z,99925.84
2023-04-12T11:09:48.910Z,99915.78
2023-04-12T11:12:16.814Z,99906.13
2023-04-12T11:14:51.384Z,99909.97
2023-04-12T11:17:18.023Z,99921.06
2023-04-12T11:19:57.013Z,99919.00
2023-04-12T11:22:26.470Z,99914.81
2023-04-12T11:24:56.309Z,99790.31
2023-04-12T11:27:24.828Z,99737.38
2023-04-12T11:29:56.917Z,99800.19
2023-04-12T11:32:26.730Z,99435.22
2023-04-12T11:34:55.558Z,99446.88
2023-04-12T11:37:23.106Z,99485.47
2023-04-12T11:39:55.456Z,99520.66
2023-04-12T11:42:27.109Z,99579.63
2023-04-12T11:44:59.218Z,99573.13
2023-04-12T11:47:29.094Z,99556.75
2023-04-12T11:49:57.785Z,99566.44
2023-04-12T11:52:30.576Z,99305.78
2023-04-12T11:55:01.066Z,99269.66
2023-04-12T11:57:29.276Z,99412.53
2023-04-12T11:59:58.576Z,99423.06
2023-04-12T12:02:29.144Z,99517.19
2023-04-12T12:04:58.974Z,99293.63
2023-04-12T12:07:26.754Z,99391.34
2023-04-12T12:09:54.326Z,99453.25
2023-04-12T12:12:23.863Z,99331.97
2023-04-12T12:14:50.478Z,99461.47
2023-04-12T12:17:17.555Z,99501.44
2023-04-12T12:19:46.139Z,99486.97
2023-04-12T12:22:12.930Z,99502.78
2023-04-12T12:24:45.302Z,99291.13
2023-04-12T12:27:12.160Z,99259.41
2023-04-12T12:29:41.664Z,99218.19
2023-04-12T12:32:13.855Z,99313.63
2023-04-12T12:34:54.480Z,99414.25
2023-04-12T12:37:23.836Z,99399.47
2023-04-12T12:40:11.797Z,99464.16
2023-04-12T12:42:48.629Z,99429.38
2023-04-12T12:45:16.915Z,99377.78
2023-04-12T12:47:52.351Z,99418.81
2023-04-12T12:50:24.712Z,99438.47
2023-04-12T12:52:52.202Z,99435.34
2023-04-12T12:55:21.362Z,99445.66
2023-04-12T12:58:02.055Z,99462.31
2023-04-12T13:00:33.256Z,99409.66
2023-04-12T13:03:00.201Z,99450.03
2023-04-12T13:05:27.366Z,99423.06
2023-04-12T13:07:54.001Z,99395.84
2023-04-12T13:10:20.644Z,99358.56
2023-04-12T13:12:47.263Z,99416.69
2023-04-12T13:17:44.112Z,99405.50
2023-04-12T13:20:11.168Z,99439.63
2023-04-12T13:22:38.094Z,99393.66
2023-04-12T13:25:05.006Z,99392.63
2023-04-12T13:27:31.889Z,99471.53
2023-04-12T13:29:58.554Z,99443.38
2023-04-12T13:32:25.451Z,99471.50
2023-04-12T13:34:52.403Z,99314.94
2023-04-12T13:37:18.972Z,99467.91
2023-04-12T13:39:45.842Z,99461.03
2023-04-12T13:42:12.431Z,99471.63
2023-04-12T13:44:39.244Z,99472.09
2023-04-12T13:47:05.969Z,99458.44
2023-04-12T13:49:32.568Z,99410.84
2023-04-12T13:51:59.175Z,99413.25
2023-04-12T13:54:26.274Z,99444.16
2023-04-12T13:56:53.150Z,99399.72
2023-04-12T13:59:20.431Z,99453.84
2023-04-12T14:01:47.619Z,99423.25
2023-04-12T14:04:14.421Z,99427.09
2023-04-12T14:06:41.109Z,99439.69
2023-04-12T14:09:07.796Z,99421.50
2023-04-12T14:11:47.745Z,99426.50
2023-04-12T14:14:16.686Z,99423.47
2023-04-12T14:16:44.821Z,99398.91
2023-04-12T14:19:11.472Z,99420.63
2023-04-12T14:21:39.274Z,99201.13
2023-04-12T14:24:08.552Z,99348.28
2023-04-12T14:26:35.162Z,99375.16
2023-04-12T14:29:01.827Z,99361.53
2023-04-12T14:31:28.846Z,99349.13
2023-04-12T14:33:55.565Z,99350.13
2023-04-12T14:36:22.115Z,99322.47
2023-04-12T14:38:49.742Z,99373.53
2023-04-12T14:41:17.167Z,99365.28
2023-04-12T14:43:43.808Z,99351.97
2023-04-12T14:46:12.023Z,98905.22
2023-04-12T14:48:38.883Z,96670.13
2023-04-12T14:51:05.725Z,96996.75
2023-04-12T14:53:32.336Z,97279.25
2023-04-12T14:56:00.614Z,97611.84
2023-04-12T14:58:29.534Z,97672.06
2023-04-12T15:00:58.191Z,97755.06
2023-04-12T15:03:26.924Z,97782.97
2023-04-12T15:05:53.647Z,97614.53
2023-04-12T15:08:20.330Z,97716.19
2023-04-12T15:10:47.234Z,97823.84
2023-04-12T15:13:13.783Z,97836.69
2023-04-12T15:15:41.884Z,97890.44
2023-04-12T15:18:08.983Z,97883.88
2023-04-12T15:20:36.142Z,97920.94
2023-04-12T15:23:02.837Z,97926.13
2023-04-12T15:25:30.881Z,97922.41
2023-04-12T15:27:57.460Z,97910.69
2023-04-12T15:30:24.406Z,97952.25
2023-04-12T15:32:51.059Z,97971.69
2023-04-12T15:35:26.600Z,97953.38
2023-04-12T15:37:55.263Z,97952.00
2023-04-12T15:40:23.072Z,97929.75
2023-04-12T15:42:49.818Z,97940.47
2023-04-12T15:45:16.481Z,97950.91
2023-04-12T15:47:43.264Z,97946.31
2023-04-12T15:50:10.377Z,97902.00
2023-04-12T15:52:37.252Z,97950.81
2023-04-12T15:55:05.536Z,97978.56
2023-04-12T15:57:33.194Z,97978.03
2023-04-12T16:00:00.031Z,97980.53
2023-04-12T16:02:27.181Z,97955.53
2023-04-12T16:04:56.051Z,97976.25
2023-04-12T16:07:22.932Z,97970.88
2023-04-12T16:09:49.790Z,97963.47
2023-04-12T16:12:16.407Z,97938.66
2023-04-12T16:14:43.286Z,97944.38
2023-04-12T16:17:10.116Z,97921.00
2023-04-12T16:19:36.953Z,97918.94
2023-04-12T16:22:04.058Z,97955.06
2023-04-12T16:24:30.677Z,97934.09
2023-04-12T16:26:57.677Z,97977.34
2023-04-12T16:29:24.625Z,97978.97
2023-04-12T16:31:52.342Z,97978.44
2023-04-12T16:34:22.076Z,97980.31
2023-04-12T16:36:49.318Z,97966.28
2023-04-12T16:39:16.720Z,97926.97
2023-04-12T16:41:44.064Z,97925.72
2023-04-12T16:44:10.962Z,97923.75
2023-04-12T16:46:38.089Z,97971.16
2023-04-12T16:49:04.933Z,97924.44
2023-04-12T16:51:36.820Z,97961.66
2023-04-12T16:54:04.295Z,97917.94
2023-04-12T16:56:31.294Z,97941.47
2023-04-12T16:58:59.178Z,97929.44
2023-04-12T17:01:25.890Z,97897.47
2023-04-12T17:03:52.799Z,97891.41
2023-04-12T17:06:19.796Z,97925.97
2023-04-12T17:08:49.780Z,97905.03
2023-04-12T17:11:16.422Z,97913.03
2023-04-12T17:13:44.759Z,97880.69
2023-04-12T17:16:11.439Z,97930.66
2023-04-12T17:18:40.449Z,97934.19
2023-04-12T17:21:07.367Z,97890.34
2023-04-12T17:23:34.110Z,97933.53
2023-04-12T17:26:01.542Z,97930.25
2023-04-12T17:28:28.319Z,97877.66
2023-04-12T17:30:57.704Z,97923.38
2023-04-12T17:33:24.299Z,97906.69
2023-04-12T17:35:50.956Z,97915.09
2023-04-12T17:38:17.625Z,97892.81
2023-04-12T17:40:44.256Z,97912.38
2023-04-12T17:43:11.213Z,97914.28
2023-04-12T17:45:37.967Z,97845.34
2023-04-12T17:48:05.469Z,97907.00
2023-04-12T17:50:32.133Z,97883.53
2023-04-12T17:53:00.131Z,97854.66
2023-04-12T17:55:26.818Z,97906.19
2023-04-12T17:57:53.560Z,97901.38
2023-04-12T18:00:20.869Z,97910.72
2023-04-12T18:02:47.775Z,97844.69
2023-04-12T18:05:14.620Z,97916.75
2023-04-12T18:07:42.683Z,97916.72
2023-04-12T18:10:12.604Z,97916.31
2023-04-12T18:12:39.437Z,97901.38
2023-04-12T18:15:08.505Z,97868.84
2023-04-12T18:17:35.314Z,97899.53
2023-04-12T18:20:03.140Z,97846.00
2023-04-12T18:22:30.129Z,97905.53
2023-04-12T18:24:56.778Z,97893.16
2023-04-12T18:27:23.498Z,97903.50
2023-04-12T18:29:50.262Z,97906.81
2023-04-12T18:32:16.903Z,97848.63
2023-04-12T18:34:43.516Z,97911.94
2023-04-12T18:37:10.109Z,97722.63
2023-04-12T18:39:36.797Z,97952.41
2023-04-12T18:42:03.464Z,97906.94
2023-04-12T18:44:38.064Z,97910.88
2023-04-12T18:47:04.681Z,97893.88
2023-04-12T18:49:31.423Z,97919.28
2023-04-12T18:52:00.821Z,97912.19
2023-04-12T18:54:30.418Z,97937.34
2023-04-12T18:57:02.031Z,97927.03
2023-04-12T18:59:28.781Z,96107.72
2023-04-12T19:01:55.684Z,94506.91
2023-04-12T19:04:22.328Z,94994.25
2023-04-12T19:06:49.224Z,95437.06
2023-04-12T19:09:15.958Z,95680.25
2023-04-12T19:11:42.585Z,95817.66
2023-04-12T19:14:09.227Z,95959.41
2023-04-12T19:16:36.335Z,96133.16
2023-04-12T19:19:03.058Z,96257.91
2023-04-12T19:21:29.787Z,96330.03
2023-04-12T19:23:56.737Z,96486.50
2023-04-12T19:26:23.597Z,96545.84
2023-04-12T19:28:55.811Z,96811.47
2023-04-12T19:31:23.876Z,96922.78
2023-04-12T19:33:50.609Z,97010.03
2023-04-12T19:36:17.402Z,97151.25
2023-04-12T19:38:47.616Z,97241.50
2023-04-12T19:41:14.665Z,97330.94
2023-04-12T19:43:41.269Z,97398.44
2023-04-12T19:46:08.443Z,97386.94
2023-04-12T19:48:35.166Z,97567.56
2023-04-12T19:51:01.818Z,97758.53
2023-04-12T19:53:28.428Z,98103.19
2023-04-12T19:55:58.333Z,98486.38
2023-04-12T19:58:25.233Z,98372.81
2023-04-12T20:00:54.724Z,99079.34
2023-04-12T20:03:22.050Z,99058.75
2023-04-12T20:05:48.926Z,99147.19
2023-04-12T20:08:16.077Z,99236.75
2023-04-12T20:10:43.069Z,99295.97
2023-04-12T20:13:15.256Z,99284.63
2023-04-12T20:15:42.961Z,99288.44
2023-04-12T20:18:11.454Z,99372.06
2023-04-12T20:20:39.578Z,99365.19
2023-04-12T20:23:06.558Z,99363.44
2023-04-12T20:25:37.838Z,99481.88
2023-04-12T20:28:04.771Z,99468.72
2023-04-12T20:30:31.943Z,99478.56
2023-04-12T20:33:01.154Z,99476.88
2023-04-12T20:35:28.175Z,99442.63
2023-04-12T20:37:55.167Z,99490.25
2023-04-12T20:40:23.411Z,99438.63
2023-04-12T20:42:50.602Z,99459.97
2023-04-12T20:45:18.934Z,99489.16
2023-04-12T20:47:45.716Z,99434.09
2023-04-12T20:50:13.726Z,99481.88
2023-04-12T20:52:40.385Z,99460.06
2023-04-12T20:55:07.540Z,99380.13
2023-04-12T20:57:34.841Z,99471.03
2023-04-12T21:00:02.417Z,99426.88
2023-04-12T21:02:29.262Z,99476.63
2023-04-12T21:05:00.078Z,99396.94
2023-04-12T21:07:27.466Z,99436.72
2023-04-12T21:09:54.144Z,99394.78
2023-04-12T21:12:20.725Z,99379.69
2023-04-12T21:14:50.449Z,99379.69
2023-04-12T21:17:17.248Z,99394.72
2023-04-12T21:19:44.978Z,99407.78
2023-04-12T21:22:11.700Z,99393.19
2023-04-12T21:24:38.631Z,99333.09
2023-04-12T21:27:09.165Z,99393.50
2023-04-12T21:29:41.482Z,99412.03
2023-04-12T21:32:09.209Z,99462.94
2023-04-12T21:34:36.175Z,99413.31
2023-04-12T21:37:04.736Z,99467.00
2023-04-12T21:39:31.746Z,99537.41
2023-04-12T21:41:58.626Z,99573.75
2023-04-12T21:44:25.756Z,99530.44
2023-04-12T21:46:56.234Z,99643.91
2023-04-12T21:49:24.525Z,99645.84
2023-04-12T21:51:52.460Z,99679.19
2023-04-12T21:54:20.021Z,99693.75
2023-04-12T21:56:46.546Z,99706.19
2023-04-12T21:59:13.101Z,99740.91
2023-04-12T22:01:40.404Z,99756.84
2023-04-12T22:04:11.519Z,99779.19
2023-04-12T22:06:38.313Z,99797.00
2023-04-12T22:09:05.667Z,99830.22
2023-04-12T22:11:32.278Z,99781.59
2023-04-12T22:13:58.995Z,99838.00
2023-04-12T22:16:25.687Z,99838.56
2023-04-12T22:18:52.929Z,99748.41
2023-04-12T22:21:19.746Z,99797.72
2023-04-12T22:23:46.418Z,99784.84
2023-04-12T22:26:13.603Z,99705.75
2023-04-12T22:28:42.332Z,99742.88
2023-04-12T22:31:10.239Z,99691.47
2023-04-12T22:33:40.259Z,99696.69
2023-04-12T22:36:07.253Z,99718.31
2023-04-12T22:38:35.473Z,99685.66
2023-04-12T22:41:02.346Z,99729.75
2023-04-12T22:43:34.212Z,99712.31
2023-04-12T22:46:05.233Z,99701.63
2023-04-12T22:48:34.670Z,99687.06
2023-04-12T22:51:01.760Z,99741.31
2023-04-12T22:53:28.468Z,99778.06
2023-04-12T22:55:56.938Z,99820.50
2023-04-12T22:58:24.189Z,99755.03
2023-04-12T23:00:51.049Z,99735.53
2023-04-12T23:03:18.781Z,99735.78
2023-04-12T23:05:46.081Z,99683.06
2023-04-12T23:08:18.025Z,99709.28
2023-04-12T23:10:44.789Z,99662.72
2023-04-12T23:13:11.750Z,99663.47
2023-04-12T23:15:40.716Z,99685.53
2023-04-12T23:18:10.928Z,99637.47
2023-04-12T23:20:38.243Z,99756.88
2023-04-12T23:23:05.837Z,99790.78
2023-04-12T23:25:41.384Z,99800.56
2023-04-12T23:28:15.260Z,99765.53
2023-04-12T23:30:49.154Z,99755.03
2023-04-12T23:33:20.578Z,99776.09
2023-04-12T23:35:49.626Z,99809.88
2023-04-12T23:38:23.295Z,99783.56
2023-04-12T23:40:54.064Z,99773.13
2023-04-12T23:43:22.000Z,99804.63
2023-04-12T23:45:49.500Z,99740.88
2023-04-12T23:48:19.048Z,99745.56
2023-04-12T23:50:45.964Z,99814.50
2023-04-12T23:53:13.177Z,99750.84
2023-04-12T23:55:42.357Z,99791.16
2023-04-12T23:58:09.608Z,99798.91
